Time;durP1;ratioP1;P1;durP2;ratioP2;P2;SDS_P1;SDS_P2;PMS_P1;PMS_P2;Temp;Humidity;BMP_temperature;BMP_pressure;BME280_temperature;BME280_humidity;BME280_pressure;Samples;Min_cycle;Max_cycle;Signal;HPM_P1;HPM_P2
2022/04/06 00:01:15;;;;;;;5.82;3.22;;;13.20;48.20;;;;;;6007060;29;20053;-70
2022/04/06 00:04:16;;;;;;;5.30;2.83;;;13.10;48.20;;;;;;6007236;29;20038;-70
2022/04/06 00:07:16;;;;;;;6.93;2.65;;;13.10;48.20;;;;;;5975688;29;20055;-70
2022/04/06 00:10:17;;;;;;;4.55;2.70;;;13.10;48.30;;;;;;6007512;29;20383;-70
2022/04/06 00:13:18;;;;;;;7.30;3.10;;;13.00;48.40;;;;;;6008430;29;20041;-70
2022/04/06 00:16:19;;;;;;;10.30;3.38;;;13.00;48.40;;;;;;6000007;29;20053;-70
2022/04/06 00:19:20;;;;;;;5.65;2.70;;;12.90;48.50;;;;;;5989777;29;20041;-70
2022/04/06 00:22:21;;;;;;;6.65;3.00;;;13.00;48.60;;;;;;5988401;29;20125;-70
2022/04/06 00:25:22;;;;;;;4.90;2.47;;;12.90;48.70;;;;;;6005737;29;20171;-70
2022/04/06 00:28:23;;;;;;;6.32;2.95;;;12.80;48.70;;;;;;6008617;29;20459;-71
2022/04/06 00:31:24;;;;;;;4.63;2.53;;;12.80;48.90;;;;;;6007031;29;20037;-70
2022/04/06 00:35:28;;;;;;;4.78;2.40;;;12.70;49.00;;;;;;6005996;29;20041;-70
2022/04/06 00:37:45;;;;;;;3.05;2.30;;;12.70;49.00;;;;;;6003281;29;20065;-70
2022/04/06 00:40:46;;;;;;;8.48;2.42;;;12.60;49.10;;;;;;5974993;29;20068;-70
2022/04/06 00:44:13;;;;;;;5.03;2.38;;;12.60;49.10;;;;;;5990583;29;20463;-70
2022/04/06 00:47:14;;;;;;;4.05;2.47;;;12.60;49.20;;;;;;6004692;29;20038;-70
2022/04/06 00:50:15;;;;;;;6.05;2.53;;;12.50;49.20;;;;;;5989717;29;20490;-70
2022/04/06 00:53:16;;;;;;;7.90;2.42;;;12.50;49.30;;;;;;6005743;29;20186;-70
2022/04/06 00:56:18;;;;;;;3.63;1.90;;;12.50;49.30;;;;;;6004245;29;20042;-70
2022/04/06 00:59:19;;;;;;;4.85;2.25;;;12.40;49.30;;;;;;6006706;29;21613;-70
2022/04/06 01:02:20;;;;;;;6.38;2.63;;;12.40;49.40;;;;;;6005291;29;20038;-70
2022/04/06 01:05:21;;;;;;;4.22;2.75;;;12.40;49.60;;;;;;6008816;29;20065;-70
2022/04/06 01:08:23;;;;;;;4.55;2.42;;;12.40;49.60;;;;;;6008566;29;20612;-70
2022/04/06 01:11:24;;;;;;;4.38;2.58;;;12.30;49.70;;;;;;6010094;29;20163;-70
2022/04/06 01:14:25;;;;;;;6.47;2.70;;;12.30;49.80;;;;;;5994295;29;20034;-71
2022/04/06 01:17:33;;;;;;;4.93;2.95;;;12.30;49.90;;;;;;5993203;29;20041;-70
2022/04/06 01:20:34;;;;;;;6.22;3.55;;;12.20;49.90;;;;;;6008328;29;20042;-70
2022/04/06 01:23:35;;;;;;;11.23;4.35;;;12.20;50.00;;;;;;6007319;29;20057;-70
2022/04/06 01:26:36;;;;;;;9.00;4.68;;;12.20;50.10;;;;;;6008840;29;20057;-70
2022/04/06 01:29:37;;;;;;;9.23;5.15;;;12.10;50.20;;;;;;6009454;29;20042;-70
2022/04/06 01:32:38;;;;;;;10.40;5.00;;;12.10;50.40;;;;;;6008943;29;20370;-70
2022/04/06 01:35:41;;;;;;;5.43;3.35;;;12.10;50.40;;;;;;5992618;29;20128;-70
2022/04/06 01:38:41;;;;;;;7.68;2.88;;;12.10;50.40;;;;;;6007633;29;20042;-70
2022/04/06 01:41:42;;;;;;;5.35;2.58;;;12.10;50.50;;;;;;6007850;29;20053;-70
2022/04/06 01:44:45;;;;;;;3.80;2.55;;;12.10;50.50;;;;;;5994559;29;20113;-70
2022/04/06 01:47:46;;;;;;;9.35;2.83;;;12.10;50.50;;;;;;6008450;29;20140;-70
2022/04/06 01:54:06;;;;;;;5.28;2.97;;;12.10;50.50;;;;;;6007059;29;20102;-70
2022/04/06 01:57:07;;;;;;;4.85;2.38;;;12.00;50.40;;;;;;5992419;29;20058;-70
2022/04/06 02:00:11;;;;;;;4.05;2.33;;;12.00;50.40;;;;;;6007672;29;20112;-70
2022/04/06 02:03:14;;;;;;;5.68;2.97;;;12.00;50.50;;;;;;6006922;29;20042;-70
2022/04/06 02:06:15;;;;;;;6.38;2.53;;;12.00;50.60;;;;;;6008577;29;20041;-71
2022/04/06 02:09:17;;;;;;;10.52;3.05;;;11.90;50.60;;;;;;6000022;29;20046;-70
2022/04/06 02:12:19;;;;;;;4.78;2.20;;;11.90;50.70;;;;;;5993872;29;20061;-70
2022/04/06 02:15:20;;;;;;;3.88;2.15;;;11.80;50.80;;;;;;5993844;29;20038;-70
2022/04/06 02:18:22;;;;;;;3.40;2.35;;;11.80;50.90;;;;;;5993729;29;20480;-70
2022/04/06 02:21:23;;;;;;;6.05;2.60;;;11.80;50.90;;;;;;5980056;29;20050;-70
2022/04/06 02:24:24;;;;;;;8.35;3.53;;;11.80;50.90;;;;;;5996283;29;20043;-72
2022/04/06 02:27:25;;;;;;;6.22;3.60;;;11.80;50.90;;;;;;5980261;29;20035;-70
2022/04/06 02:30:26;;;;;;;8.70;2.53;;;11.80;50.90;;;;;;5980620;29;24089;-70
2022/04/06 02:33:27;;;;;;;8.32;3.08;;;11.80;50.90;;;;;;5993122;29;20047;-70
2022/04/06 02:36:27;;;;;;;6.70;2.80;;;11.80;51.00;;;;;;5964372;29;20049;-70
2022/04/06 02:39:29;;;;;;;7.40;2.70;;;11.80;51.00;;;;;;5997576;29;20057;-70
2022/04/06 02:42:30;;;;;;;5.72;2.90;;;11.70;51.00;;;;;;5994198;29;20110;-70
2022/04/06 02:45:30;;;;;;;4.40;2.38;;;11.70;51.10;;;;;;5995529;29;20042;-70
2022/04/06 02:48:32;;;;;;;4.65;2.83;;;11.60;51.20;;;;;;5996790;29;20034;-70
2022/04/06 02:51:33;;;;;;;9.10;2.97;;;11.60;51.40;;;;;;5995796;29;20053;-71
2022/04/06 02:54:34;;;;;;;9.60;3.10;;;11.60;51.50;;;;;;5978309;29;20463;-70
2022/04/06 02:57:35;;;;;;;4.55;2.90;;;11.50;51.60;;;;;;5981205;29;20521;-71
2022/04/06 03:00:36;;;;;;;6.05;2.47;;;11.40;51.70;;;;;;5994693;29;20082;-71
2022/04/06 03:03:37;;;;;;;9.23;2.75;;;11.40;51.80;;;;;;5995651;29;20060;-71
2022/04/06 03:06:39;;;;;;;8.23;2.97;;;11.40;51.80;;;;;;5978733;29;20095;-70
2022/04/06 03:09:40;;;;;;;7.35;3.25;;;11.40;51.80;;;;;;6005332;29;20137;-71
2022/04/06 03:12:40;;;;;;;6.10;2.80;;;11.40;51.80;;;;;;6007129;29;20041;-70
2022/04/06 03:15:42;;;;;;;4.97;2.95;;;11.40;52.00;;;;;;6005949;29;20069;-70
2022/04/06 03:18:43;;;;;;;5.65;3.00;;;11.40;52.00;;;;;;5991074;29;20308;-70
2022/04/06 03:21:43;;;;;;;5.32;2.53;;;11.40;52.00;;;;;;6011858;29;20480;-70
2022/04/06 03:24:45;;;;;;;7.13;2.42;;;11.40;52.10;;;;;;6005586;29;20469;-70
2022/04/06 03:27:47;;;;;;;3.88;2.70;;;11.40;52.20;;;;;;5989942;29;20345;-70
2022/04/06 03:30:48;;;;;;;6.57;2.55;;;11.40;52.30;;;;;;5991620;29;20045;-70
2022/04/06 03:33:48;;;;;;;5.97;2.65;;;11.40;52.50;;;;;;5991203;29;20376;-70
2022/04/06 03:36:49;;;;;;;5.72;2.97;;;11.40;52.60;;;;;;5989240;29;20058;-71
2022/04/06 03:39:50;;;;;;;4.75;2.60;;;11.40;52.70;;;;;;6007141;29;20071;-70
2022/04/06 03:42:51;;;;;;;5.47;3.10;;;11.30;52.70;;;;;;5990421;29;20341;-70
2022/04/06 03:45:52;;;;;;;4.38;2.90;;;11.30;52.70;;;;;;5990728;29;20038;-70
2022/04/06 03:48:53;;;;;;;7.57;3.25;;;11.30;53.00;;;;;;5990009;29;20098;-70
2022/04/06 03:51:53;;;;;;;4.22;2.42;;;11.30;53.20;;;;;;6006197;29;20062;-70
2022/04/06 03:54:54;;;;;;;5.22;3.30;;;11.30;53.50;;;;;;5990742;29;20053;-70
2022/04/06 03:57:55;;;;;;;8.57;3.67;;;11.30;53.70;;;;;;5988953;29;20057;-70
2022/04/06 04:00:56;;;;;;;8.18;2.85;;;11.30;54.00;;;;;;6005543;29;20034;-70
2022/04/06 04:03:57;;;;;;;12.45;3.05;;;11.20;54.20;;;;;;6004278;29;20038;-70
2022/04/06 04:06:58;;;;;;;6.35;2.70;;;11.20;54.40;;;;;;5989582;29;20105;-70
2022/04/06 04:09:59;;;;;;;4.93;2.90;;;11.20;54.50;;;;;;6014164;29;20054;-70
2022/04/06 04:13:00;;;;;;;5.95;2.53;;;11.10;54.60;;;;;;5990320;29;20070;-70
2022/04/06 04:16:01;;;;;;;8.20;2.78;;;11.10;54.80;;;;;;5989403;29;20038;-70
2022/04/06 04:19:02;;;;;;;9.20;3.55;;;11.10;55.00;;;;;;6005855;29;20038;-71
2022/04/06 04:22:03;;;;;;;6.57;2.53;;;11.10;55.10;;;;;;5973791;29;20034;-70
2022/04/06 04:25:06;;;;;;;6.60;2.90;;;11.00;55.00;;;;;;6005173;29;20125;-70
2022/04/06 04:28:07;;;;;;;6.03;3.67;;;11.00;54.80;;;;;;6004696;29;20046;-70
2022/04/06 04:31:08;;;;;;;5.90;2.97;;;11.00;54.80;;;;;;6004804;29;20463;-70
2022/04/06 04:34:09;;;;;;;6.97;3.40;;;11.00;54.60;;;;;;6006038;29;20034;-70
2022/04/06 04:37:10;;;;;;;7.25;3.83;;;11.00;54.50;;;;;;6004984;29;20646;-70
2022/04/06 04:40:12;;;;;;;10.13;3.30;;;11.00;54.50;;;;;;6007633;29;20118;-71
2022/04/06 04:43:13;;;;;;;7.72;3.90;;;11.00;54.50;;;;;;6009510;29;20368;-70
2022/04/06 04:46:14;;;;;;;6.72;3.30;;;11.00;54.40;;;;;;5990052;29;20045;-70
2022/04/06 04:49:15;;;;;;;7.78;3.63;;;11.00;54.40;;;;;;5990671;29;20072;-70
2022/04/06 04:52:16;;;;;;;8.27;3.38;;;11.00;54.30;;;;;;6017628;29;20046;-69
2022/04/06 04:55:18;;;;;;;11.32;4.05;;;11.10;54.20;;;;;;6000370;29;20045;-70
2022/04/06 04:58:20;;;;;;;7.35;3.30;;;11.10;54.10;;;;;;5993833;29;20038;-69
2022/04/06 05:01:21;;;;;;;7.05;3.72;;;11.10;53.90;;;;;;6016477;29;20057;-70
2022/04/06 05:04:22;;;;;;;7.93;4.32;;;11.10;53.70;;;;;;6008342;29;20038;-69
2022/04/06 05:07:23;;;;;;;7.40;3.67;;;11.10;53.50;;;;;;5993656;29;20106;-69
2022/04/06 05:10:24;;;;;;;7.90;3.17;;;11.10;53.40;;;;;;5996078;29;20049;-69
2022/04/06 05:13:25;;;;;;;6.80;3.30;;;11.10;53.40;;;;;;5980956;29;20054;-71
2022/04/06 05:16:26;;;;;;;6.97;3.67;;;11.00;53.40;;;;;;5980480;29;20098;-69
2022/04/06 05:19:27;;;;;;;7.82;3.10;;;11.00;53.30;;;;;;5983283;29;20436;-69
2022/04/06 05:22:28;;;;;;;5.38;3.25;;;11.00;53.90;;;;;;5997384;29;20042;-71
2022/04/06 05:25:29;;;;;;;10.60;4.15;;;11.00;53.40;;;;;;5995040;29;20046;-71
2022/04/06 05:28:30;;;;;;;10.48;3.13;;;11.00;53.30;;;;;;5964256;29;20042;-71
2022/04/06 05:31:31;;;;;;;12.02;3.90;;;11.00;53.20;;;;;;5964818;29;20456;-71
2022/04/06 05:34:32;;;;;;;7.15;3.55;;;11.00;53.20;;;;;;5998477;29;20046;-70
2022/04/06 05:37:33;;;;;;;7.68;2.95;;;11.00;53.20;;;;;;5977927;29;20050;-71
2022/04/06 05:40:34;;;;;;;6.57;3.47;;;11.00;53.20;;;;;;5980306;29;20046;-71
2022/04/06 05:43:36;;;;;;;5.65;3.13;;;11.00;53.20;;;;;;5964519;29;20396;-71
2022/04/06 05:46:37;;;;;;;7.40;4.00;;;11.10;53.10;;;;;;5980827;29;20042;-71
2022/04/06 05:49:38;;;;;;;7.00;3.53;;;11.10;53.00;;;;;;5994985;29;20431;-70
2022/04/06 05:52:38;;;;;;;9.63;3.38;;;11.20;52.90;;;;;;5993521;29;20547;-71
2022/04/06 05:55:40;;;;;;;6.80;3.33;;;11.20;52.80;;;;;;5998242;29;20085;-71
2022/04/06 05:58:42;;;;;;;6.05;3.35;;;11.30;52.70;;;;;;5979800;29;20046;-70
2022/04/06 06:01:43;;;;;;;7.10;3.63;;;11.30;52.40;;;;;;5996437;29;20121;-71
2022/04/06 06:04:44;;;;;;;6.38;3.25;;;11.30;52.40;;;;;;5993870;29;20504;-71
2022/04/06 06:07:45;;;;;;;6.85;3.25;;;11.30;52.30;;;;;;5999059;29;20042;-71
2022/04/06 06:10:47;;;;;;;5.40;3.35;;;11.30;52.20;;;;;;5990496;29;20496;-72
2022/04/06 06:13:49;;;;;;;4.75;2.97;;;11.20;52.00;;;;;;6006255;29;20125;-71
2022/04/06 06:16:50;;;;;;;11.48;4.32;;;11.30;52.10;;;;;;6006415;29;20050;-71
2022/04/06 06:19:51;;;;;;;13.57;3.47;;;11.20;52.10;;;;;;5990822;29;20117;-71
2022/04/06 06:22:51;;;;;;;10.35;3.50;;;11.30;52.10;;;;;;5998218;29;20116;-71
2022/04/06 06:25:52;;;;;;;8.88;3.40;;;11.30;52.10;;;;;;6007525;29;20038;-71
2022/04/06 06:28:53;;;;;;;7.03;3.78;;;11.30;52.00;;;;;;5990350;29;20034;-70
2022/04/06 06:31:54;;;;;;;10.88;3.75;;;11.30;51.90;;;;;;6006656;29;20034;-72
2022/04/06 06:34:55;;;;;;;4.63;2.92;;;11.40;52.00;;;;;;5991276;29;20033;-72
2022/04/06 06:37:57;;;;;;;9.65;3.40;;;11.40;52.00;;;;;;5990231;29;20050;-71
2022/04/06 06:40:58;;;;;;;9.90;4.15;;;11.50;51.90;;;;;;5976423;29;20121;-71
2022/04/06 06:43:58;;;;;;;13.23;4.57;;;11.50;51.80;;;;;;6015123;29;20056;-71
2022/04/06 06:46:59;;;;;;;9.38;4.63;;;11.50;51.70;;;;;;6005158;29;20034;-70
2022/04/06 06:50:00;;;;;;;9.05;3.95;;;11.60;51.70;;;;;;6005618;29;20041;-71
2022/04/06 06:53:01;;;;;;;14.82;4.43;;;11.60;51.70;;;;;;6011927;29;20044;-70
2022/04/06 06:56:03;;;;;;;8.82;4.57;;;11.60;51.70;;;;;;6005674;29;20121;-70
2022/04/06 06:59:04;;;;;;;13.27;4.47;;;11.50;51.70;;;;;;5989033;29;20049;-70
2022/04/06 07:02:05;;;;;;;8.43;4.35;;;11.60;51.70;;;;;;6006320;29;20042;-70
2022/04/06 07:05:06;;;;;;;9.55;4.30;;;11.60;51.70;;;;;;6006409;29;20345;-70
2022/04/06 07:08:07;;;;;;;14.73;4.57;;;11.70;51.70;;;;;;6005966;29;20125;-71
2022/04/06 07:11:08;;;;;;;7.97;4.13;;;11.70;51.60;;;;;;5990362;29;20037;-70
2022/04/06 07:14:09;;;;;;;12.45;4.45;;;11.80;51.40;;;;;;5987763;29;20143;-71
2022/04/06 07:17:10;;;;;;;9.75;4.25;;;12.00;52.00;;;;;;6005186;29;20042;-70
2022/04/06 07:20:11;;;;;;;7.75;4.40;;;12.10;51.20;;;;;;5989847;29;20385;-71
2022/04/06 07:23:12;;;;;;;16.17;4.78;;;12.20;51.10;;;;;;5990802;29;20041;-71
2022/04/06 07:26:16;;;;;;;14.02;4.70;;;12.30;50.90;;;;;;5975868;29;20045;-71
2022/04/06 07:29:17;;;;;;;13.07;5.10;;;12.40;50.80;;;;;;5973430;29;20420;-70
2022/04/06 07:32:18;;;;;;;14.40;5.82;;;12.60;50.90;;;;;;6005741;29;20049;-70
2022/04/06 07:35:20;;;;;;;16.55;6.00;;;12.70;50.90;;;;;;5990830;29;20086;-71
2022/04/06 07:38:20;;;;;;;18.63;6.15;;;12.80;51.00;;;;;;5989473;29;20065;-71
2022/04/06 07:41:24;;;;;;;14.82;6.20;;;12.90;51.00;;;;;;5990025;29;20041;-70
2022/04/06 07:44:26;;;;;;;16.60;6.32;;;13.00;50.90;;;;;;6004781;29;20042;-71
2022/04/06 07:47:32;;;;;;;16.77;6.10;;;13.10;50.80;;;;;;5975162;29;20101;-72
2022/04/06 07:50:33;;;;;;;13.30;5.75;;;13.20;50.70;;;;;;5986456;29;20605;-71
2022/04/06 07:53:34;;;;;;;15.00;6.47;;;13.20;50.60;;;;;;5989610;29;20041;-72
2022/04/06 07:56:34;;;;;;;11.90;5.90;;;13.20;50.60;;;;;;5989157;29;20053;-71
2022/04/06 07:59:35;;;;;;;13.95;6.75;;;13.30;50.50;;;;;;6005770;29;20460;-71
2022/04/06 08:02:37;;;;;;;17.30;7.15;;;13.40;50.50;;;;;;5988247;29;20069;-71
2022/04/06 08:05:38;;;;;;;12.23;6.30;;;13.50;50.20;;;;;;6004600;29;20083;-71
2022/04/06 08:08:39;;;;;;;13.77;7.13;;;13.60;50.10;;;;;;5989148;29;20046;-71
2022/04/06 08:11:40;;;;;;;14.65;6.40;;;13.70;50.00;;;;;;5995273;29;20049;-72
2022/04/06 08:14:41;;;;;;;20.45;6.82;;;13.80;49.80;;;;;;5992111;29;20050;-71
2022/04/06 08:17:46;;;;;;;19.10;6.60;;;14.00;49.60;;;;;;5992640;29;20063;-71
2022/04/06 08:20:48;;;;;;;15.18;7.68;;;14.10;49.40;;;;;;6008708;29;20042;-72
2022/04/06 08:23:48;;;;;;;9.25;5.35;;;14.20;49.50;;;;;;6009701;29;20041;-72
2022/04/06 08:26:49;;;;;;;13.00;5.90;;;14.40;49.10;;;;;;6011479;29;20034;-72
2022/04/06 08:29:50;;;;;;;11.27;6.28;;;14.60;48.90;;;;;;5964204;29;20037;-70
2022/04/06 08:32:51;;;;;;;11.00;5.25;;;14.70;48.50;;;;;;5996042;29;20042;-71
2022/04/06 08:35:52;;;;;;;14.73;5.70;;;14.80;48.10;;;;;;5978544;29;20045;-72
2022/04/06 08:38:53;;;;;;;11.77;6.03;;;14.90;48.10;;;;;;6008718;29;20117;-71
2022/04/06 08:41:57;;;;;;;12.02;5.85;;;15.00;48.00;;;;;;5997211;29;20090;-70
2022/04/06 08:45:01;;;;;;;15.48;7.10;;;15.10;47.70;;;;;;6008464;29;20120;-72
2022/04/06 08:48:06;;;;;;;11.65;5.82;;;15.20;47.40;;;;;;6008861;29;20066;-71
2022/04/06 08:51:09;;;;;;;18.30;6.47;;;15.30;47.00;;;;;;6010522;29;20081;-71
2022/04/06 08:54:10;;;;;;;12.32;6.57;;;15.40;46.90;;;;;;6018350;29;20463;-71
2022/04/06 08:57:13;;;;;;;12.30;6.63;;;15.40;46.90;;;;;;6000896;29;20122;-71
2022/04/06 09:00:16;;;;;;;21.85;7.65;;;15.50;46.90;;;;;;5996481;29;20068;-70
2022/04/06 09:03:17;;;;;;;12.30;6.20;;;15.60;46.80;;;;;;6007633;29;20441;-71
2022/04/06 09:06:18;;;;;;;14.73;7.30;;;15.70;46.70;;;;;;6010685;29;20098;-71
2022/04/06 09:09:27;;;;;;;15.40;6.40;;;15.80;46.50;;;;;;6003157;29;20125;-71
2022/04/06 09:12:29;;;;;;;11.20;6.25;;;15.90;46.30;;;;;;5998114;29;20189;-71
2022/04/06 09:15:30;;;;;;;10.50;5.22;;;16.10;46.00;;;;;;5998373;29;20049;-71
2022/04/06 09:19:05;;;;;;;10.00;4.60;;;16.20;45.70;;;;;;6000180;29;20050;-71
2022/04/06 09:22:08;;;;;;;12.30;5.50;;;16.30;45.40;;;;;;5997323;29;20037;-71
2022/04/06 09:25:10;;;;;;;14.57;6.68;;;16.40;45.10;;;;;;5998966;29;20053;-72
2022/04/06 09:28:14;;;;;;;19.05;5.45;;;16.40;45.00;;;;;;5982997;29;20445;-71
2022/04/06 09:31:19;;;;;;;11.57;5.60;;;16.40;44.80;;;;;;5997200;29;20033;-72
2022/04/06 09:34:22;;;;;;;10.13;5.43;;;16.40;44.70;;;;;;5999117;29;20075;-72
2022/04/06 09:37:23;;;;;;;7.53;4.13;;;16.50;44.70;;;;;;5996298;29;20049;-71
2022/04/06 09:40:29;;;;;;;11.13;4.47;;;16.60;44.60;;;;;;5988815;29;20341;-71
2022/04/06 09:43:32;;;;;;;9.80;5.35;;;16.60;44.50;;;;;;5997853;29;20095;-72
2022/04/06 09:50:19;;;;;;;9.70;5.10;;;16.80;44.50;;;;;;5994380;29;20038;-72
2022/04/06 09:53:25;;;;;;;14.10;5.22;;;16.80;44.40;;;;;;5995781;29;20047;-71
2022/04/06 09:56:30;;;;;;;8.35;5.10;;;16.90;44.20;;;;;;5979818;29;20034;-72
2022/04/06 09:59:33;;;;;;;6.40;3.75;;;16.90;44.10;;;;;;5981358;29;20041;-70
2022/04/06 10:02:36;;;;;;;10.40;4.60;;;17.10;44.10;;;;;;5978554;29;20498;-73
2022/04/06 10:05:42;;;;;;;9.27;4.28;;;17.20;44.00;;;;;;5995762;29;20445;-72
2022/04/06 10:08:43;;;;;;;9.85;4.60;;;17.30;43.70;;;;;;5996595;29;20049;-71
2022/04/06 10:11:45;;;;;;;12.70;4.22;;;17.40;43.50;;;;;;5993265;29;20094;-72
2022/04/06 10:14:46;;;;;;;12.13;5.03;;;17.50;43.10;;;;;;6005789;29;20042;-71
2022/04/06 10:17:47;;;;;;;12.55;5.10;;;17.60;43.10;;;;;;5986141;29;20060;-71
2022/04/06 10:20:54;;;;;;;10.80;4.25;;;17.60;43.00;;;;;;5991850;29;20482;-71
2022/04/06 10:24:28;;;;;;;10.75;4.45;;;17.60;43.00;;;;;;6006548;29;20078;-72
2022/04/06 10:27:32;;;;;;;12.55;4.53;;;17.70;43.00;;;;;;5972444;29;20065;-71
2022/04/06 10:30:33;;;;;;;10.10;4.30;;;17.70;43.00;;;;;;5988586;29;20072;-71
2022/04/06 10:33:35;;;;;;;8.85;4.07;;;17.80;42.90;;;;;;6004218;29;20041;-72
2022/04/06 10:36:40;;;;;;;8.65;3.95;;;17.90;42.90;;;;;;5980442;29;20170;-72
2022/04/06 10:39:59;;;;;;;7.72;4.30;;;18.00;42.90;;;;;;5994905;29;20072;-71
2022/04/06 10:43:00;;;;;;;5.68;3.65;;;18.20;42.80;;;;;;5973903;29;20034;-73
2022/04/06 10:46:02;;;;;;;9.52;4.13;;;18.50;42.40;;;;;;6006115;29;20497;-72
2022/04/06 10:49:06;;;;;;;5.97;3.58;;;18.80;41.80;;;;;;5990269;29;20135;-71
2022/04/06 10:52:26;;;;;;;6.65;3.65;;;19.10;41.40;;;;;;5990780;29;20038;-71
2022/04/06 10:55:27;;;;;;;8.45;3.72;;;19.40;40.80;;;;;;5978294;29;20508;-72
2022/04/06 10:58:48;;;;;;;5.43;3.47;;;19.70;40.40;;;;;;5989889;29;20057;-71
2022/04/06 11:02:19;;;;;;;5.63;3.55;;;19.80;40.10;;;;;;5987509;29;20049;-71
2022/04/06 11:05:50;;;;;;;5.53;3.22;;;19.90;40.00;;;;;;5989745;29;20038;-72
2022/04/06 11:12:30;;;;;;;7.90;3.80;;;20.30;39.40;;;;;;5948283;29;20122;-72
2022/04/06 11:15:40;;;;;;;5.00;2.90;;;20.60;39.00;;;;;;5940518;29;20075;-71
2022/04/06 11:18:48;;;;;;;5.80;3.22;;;20.80;38.80;;;;;;5952460;29;20150;-71
2022/04/06 11:21:50;;;;;;;6.05;3.53;;;21.00;38.20;;;;;;5953129;29;20559;-72
2022/04/06 11:24:51;;;;;;;7.18;3.60;;;21.10;38.00;;;;;;5939987;29;20314;-71
2022/04/06 11:27:54;;;;;;;7.45;4.05;;;21.10;38.10;;;;;;5950921;29;20041;-72
2022/04/06 11:30:56;;;;;;;6.95;3.90;;;21.10;38.00;;;;;;5954857;29;20042;-72
2022/04/06 11:33:57;;;;;;;8.65;3.10;;;21.10;38.10;;;;;;5948987;29;20442;-73
2022/04/06 11:37:01;;;;;;;5.72;3.33;;;21.20;38.00;;;;;;5954927;29;20043;-72
2022/04/06 11:40:04;;;;;;;6.03;3.22;;;21.30;37.90;;;;;;5941066;29;20062;-71
2022/04/06 11:43:05;;;;;;;9.45;3.50;;;21.40;37.60;;;;;;5955267;29;20120;-72
2022/04/06 11:46:06;;;;;;;5.88;3.63;;;21.40;37.40;;;;;;5954950;29;20042;-72
2022/04/06 11:49:10;;;;;;;15.15;3.22;;;21.50;37.60;;;;;;6000748;29;20444;-73
2022/04/06 11:52:11;;;;;;;5.38;3.30;;;21.70;37.40;;;;;;6003742;29;20042;-72
2022/04/06 11:55:12;;;;;;;18.33;3.65;;;21.90;37.10;;;;;;6003979;29;20367;-72
2022/04/06 11:58:27;;;;;;;7.25;3.10;;;22.00;36.90;;;;;;6003734;29;20061;-72
2022/04/06 12:01:42;;;;;;;9.85;5.13;;;22.20;36.50;;;;;;6009611;29;20050;-72
2022/04/06 12:04:43;;;;;;;8.23;3.38;;;22.50;36.10;;;;;;6003112;29;20456;-72
2022/04/06 12:07:45;;;;;;;5.40;3.28;;;22.90;35.70;;;;;;6004339;29;20038;-72
2022/04/06 12:10:51;;;;;;;10.82;3.60;;;23.20;35.20;;;;;;5993248;29;20038;-72
2022/04/06 12:13:52;;;;;;;4.60;2.70;;;23.70;34.40;;;;;;5994240;29;20361;-73
2022/04/06 12:16:53;;;;;;;5.53;2.83;;;23.80;33.80;;;;;;5992012;29;20034;-72
2022/04/06 12:19:55;;;;;;;6.15;2.67;;;24.00;33.80;;;;;;5977739;29;20365;-72
2022/04/06 12:23:17;;;;;;;6.95;2.80;;;24.10;33.40;;;;;;5979129;29;20447;-71
2022/04/06 12:26:19;;;;;;;6.05;2.53;;;24.20;33.30;;;;;;5989745;29;20041;-72
2022/04/06 12:29:20;;;;;;;3.13;2.40;;;24.40;33.20;;;;;;5990708;29;20069;-72
2022/04/06 12:32:21;;;;;;;4.32;2.63;;;24.90;32.50;;;;;;5993861;29;20137;-72
2022/04/06 12:35:25;;;;;;;4.95;2.45;;;25.30;32.60;;;;;;5976254;29;20467;-72
2022/04/06 12:38:26;;;;;;;9.75;2.50;;;25.80;31.20;;;;;;5992646;29;20053;-71
2022/04/06 12:41:30;;;;;;;11.25;3.20;;;26.00;30.30;;;;;;5986860;29;20050;-71
2022/04/06 12:44:32;;;;;;;3.42;2.38;;;26.10;30.20;;;;;;5958237;29;20121;-72
2022/04/06 12:47:33;;;;;;;5.07;2.88;;;26.20;30.00;;;;;;5989718;29;20782;-72
2022/04/06 12:50:36;;;;;;;4.13;2.88;;;26.50;29.70;;;;;;5989142;29;20084;-72
2022/04/06 12:53:46;;;;;;;3.63;2.20;;;26.80;29.40;;;;;;5976710;29;20042;-73
2022/04/06 12:57:25;;;;;;;7.15;2.10;;;27.00;28.90;;;;;;5994595;29;20050;-71
2022/04/06 13:00:27;;;;;;;7.25;2.55;;;27.40;28.60;;;;;;5905898;30;20044;-71
2022/04/06 13:03:28;;;;;;;3.30;2.50;;;27.80;28.20;;;;;;5891027;30;20205;-73
2022/04/06 13:06:31;;;;;;;4.18;2.33;;;28.10;27.80;;;;;;5907588;30;20040;-71
2022/04/06 13:09:32;;;;;;;10.77;2.40;;;28.30;27.50;;;;;;5915792;30;20068;-72
2022/04/06 13:12:33;;;;;;;4.57;2.08;;;28.40;27.20;;;;;;5932423;29;20052;-72
2022/04/06 13:15:39;;;;;;;3.50;2.10;;;28.60;27.10;;;;;;5931774;29;20386;-72
2022/04/06 13:18:40;;;;;;;6.03;2.30;;;29.00;26.70;;;;;;5917864;30;20055;-73
2022/04/06 13:21:41;;;;;;;3.03;1.95;;;29.10;27.00;;;;;;5931854;29;20054;-72
2022/04/06 13:24:43;;;;;;;2.95;2.00;;;29.30;26.40;;;;;;5915157;29;20087;-71
2022/04/06 13:27:46;;;;;;;4.97;1.85;;;29.40;26.20;;;;;;5930084;30;20043;-72
2022/04/06 13:30:47;;;;;;;3.05;1.90;;;29.30;26.20;;;;;;5929479;29;20041;-72
2022/04/06 13:33:48;;;;;;;4.90;2.00;;;29.10;26.10;;;;;;5962706;29;20042;-71
2022/04/06 13:36:49;;;;;;;4.38;1.58;;;29.10;26.20;;;;;;5991844;29;20128;-71
2022/04/06 13:39:50;;;;;;;2.13;1.60;;;29.00;26.30;;;;;;5993084;29;20500;-72
2022/04/06 13:42:53;;;;;;;4.55;1.90;;;29.00;26.40;;;;;;5991887;29;20057;-71
2022/04/06 13:45:54;;;;;;;4.30;1.77;;;29.10;26.30;;;;;;5991497;29;20038;-71
2022/04/06 13:48:57;;;;;;;2.38;1.67;;;29.30;26.00;;;;;;5991237;29;20065;-72
2022/04/06 13:52:00;;;;;;;3.05;1.40;;;29.50;25.60;;;;;;5992647;29;20464;-73
2022/04/06 13:55:01;;;;;;;2.63;1.50;;;29.40;25.80;;;;;;6009096;29;20379;-73
2022/04/06 13:58:02;;;;;;;3.17;1.73;;;29.10;26.00;;;;;;5991951;29;20043;-72
2022/04/06 14:01:03;;;;;;;1.92;1.35;;;28.50;26.50;;;;;;5977469;29;20085;-71
2022/04/06 14:04:05;;;;;;;2.25;1.40;;;27.70;27.80;;;;;;5977178;29;20049;-71
2022/04/06 14:07:06;;;;;;;1.98;1.48;;;26.90;28.20;;;;;;5992227;29;20456;-71
2022/04/06 14:10:07;;;;;;;2.22;1.63;;;26.00;29.00;;;;;;6008992;29;20050;-71
2022/04/06 14:13:08;;;;;;;3.10;1.63;;;25.30;29.80;;;;;;6006518;29;20620;-71
2022/04/06 14:16:10;;;;;;;2.17;1.55;;;24.70;30.70;;;;;;6011015;29;20044;-70
2022/04/06 14:19:12;;;;;;;2.47;1.33;;;24.10;31.70;;;;;;5994040;29;20077;-71
2022/04/06 14:22:12;;;;;;;8.68;1.50;;;23.50;32.60;;;;;;5991961;29;20076;-72
2022/04/06 14:25:17;;;;;;;2.30;1.50;;;23.10;33.40;;;;;;5993953;29;20038;-72
2022/04/06 14:28:19;;;;;;;5.82;1.80;;;22.80;34.10;;;;;;5994813;29;20429;-72
2022/04/06 14:31:20;;;;;;;2.85;1.83;;;22.50;34.80;;;;;;6008560;29;20034;-71
2022/04/06 14:34:21;;;;;;;4.25;1.50;;;22.20;35.40;;;;;;6007974;29;20047;-72
2022/04/06 14:37:22;;;;;;;2.75;1.58;;;22.00;35.70;;;;;;5991623;29;20137;-72
2022/04/06 14:40:23;;;;;;;3.75;1.48;;;21.90;36.10;;;;;;6006367;29;20038;-73
2022/04/06 14:43:25;;;;;;;4.45;1.60;;;21.70;36.30;;;;;;6017156;29;20468;-71
2022/04/06 14:46:26;;;;;;;2.47;1.38;;;21.60;36.60;;;;;;6004210;29;20041;-71
2022/04/06 14:49:27;;;;;;;3.13;1.30;;;21.50;36.90;;;;;;6007099;29;20041;-71
2022/04/06 14:52:28;;;;;;;3.08;1.20;;;21.40;37.40;;;;;;6007652;29;20042;-71
2022/04/06 14:55:29;;;;;;;2.42;1.40;;;21.20;37.80;;;;;;6005140;29;20049;-72
2022/04/06 14:58:31;;;;;;;3.75;1.50;;;21.10;38.20;;;;;;6006352;29;20089;-71
2022/04/06 15:01:32;;;;;;;2.38;1.48;;;21.00;38.50;;;;;;5990308;29;20500;-73
2022/04/06 15:04:33;;;;;;;3.63;1.48;;;21.00;38.50;;;;;;6006827;29;20052;-71
2022/04/06 15:07:34;;;;;;;3.30;1.27;;;21.00;38.60;;;;;;6008655;29;20046;-71
2022/04/06 15:10:35;;;;;;;1.70;1.20;;;21.00;38.60;;;;;;6004663;29;20054;-71
2022/04/06 15:13:36;;;;;;;1.50;1.10;;;21.00;38.50;;;;;;5989575;29;20488;-71
2022/04/06 15:16:37;;;;;;;1.83;1.30;;;21.10;38.50;;;;;;5990802;29;20046;-71
2022/04/06 15:19:38;;;;;;;1.02;0.95;;;21.20;38.40;;;;;;6008041;29;20045;-71
2022/04/06 15:22:39;;;;;;;1.83;1.20;;;21.30;38.20;;;;;;6002277;29;20440;-72
2022/04/06 15:25:44;;;;;;;3.50;1.33;;;21.40;38.20;;;;;;6007313;29;20034;-72
2022/04/06 15:28:49;;;;;;;1.60;1.10;;;21.40;38.00;;;;;;5990220;29;20030;-71
2022/04/06 15:31:51;;;;;;;2.95;1.10;;;21.40;38.00;;;;;;5989487;29;20379;-73
2022/04/06 15:38:11;;;;;;;1.42;0.98;;;21.40;37.60;;;;;;5990202;29;20053;-71
2022/04/06 15:41:12;;;;;;;2.97;1.38;;;21.40;37.70;;;;;;5990318;29;20037;-71
2022/04/06 15:44:13;;;;;;;1.42;1.00;;;21.40;37.90;;;;;;6004908;29;20126;-71
2022/04/06 15:47:14;;;;;;;2.30;1.15;;;21.30;37.80;;;;;;6006738;29;20030;-71
2022/04/06 15:50:15;;;;;;;1.95;1.10;;;21.30;37.80;;;;;;5986949;29;20459;-72
2022/04/06 15:53:16;;;;;;;2.30;1.20;;;21.20;38.10;;;;;;5990816;29;20075;-72
2022/04/06 15:56:17;;;;;;;2.05;1.27;;;21.10;38.30;;;;;;5998534;29;20133;-72
2022/04/06 15:59:18;;;;;;;1.63;1.13;;;21.10;38.40;;;;;;5990368;29;20133;-72
2022/04/06 16:02:20;;;;;;;1.92;1.17;;;21.00;38.60;;;;;;5990105;29;20034;-70